Time;durP1;ratioP1;P1;durP2;ratioP2;P2;SDS_P1;SDS_P2;PMS_P1;PMS_P2;Temp;Humidity;BMP_temperature;BMP_pressure;BME280_temperature;BME280_humidity;BME280_pressure;Samples;Min_cycle;Max_cycle;Signal;HPM_P1;HPM_P2
2023/02/14 00:01:39;;;;;;;28.23;12.00;;;;;;;;;;4989313;28;20019;-66
2023/02/14 00:04:04;;;;;;;26.07;12.03;;;;;;;;;;4993090;28;20021;-67
2023/02/14 00:06:31;;;;;;;24.40;11.25;;;;;;;;;;4993624;28;20511;-67
2023/02/14 00:08:56;;;;;;;31.60;13.80;;;;;;;;;;4992682;28;20040;-66
2023/02/14 00:11:21;;;;;;;27.70;12.33;;;;;;;;;;4990226;28;20014;-65
2023/02/14 00:16:31;;;;;;;25.08;11.98;;;;;;;;;;4993360;28;20041;-65
2023/02/14 00:19:02;;;;;;;27.73;13.05;;;;;;;;;;4995075;28;20022;-65
2023/02/14 00:21:28;;;;;;;31.10;14.63;;;;;;;;;;4993667;28;20088;-65
2023/02/14 00:23:53;;;;;;;29.67;12.63;;;;;;;;;;4992169;28;20026;-66
2023/02/14 00:26:18;;;;;;;27.20;12.60;;;;;;;;;;4992587;28;20783;-66
2023/02/14 00:28:43;;;;;;;22.63;10.90;;;;;;;;;;4993256;28;20481;-67
2023/02/14 00:31:09;;;;;;;29.35;12.52;;;;;;;;;;4993786;28;20099;-65
2023/02/14 00:33:34;;;;;;;26.15;11.55;;;;;;;;;;4987163;28;20026;-65
2023/02/14 00:36:01;;;;;;;28.10;12.38;;;;;;;;;;4992700;28;20041;-65
2023/02/14 00:38:26;;;;;;;25.20;12.48;;;;;;;;;;4992675;28;20026;-66
2023/02/14 00:40:51;;;;;;;25.90;11.88;;;;;;;;;;4990769;28;20105;-66
2023/02/14 00:43:16;;;;;;;23.45;10.93;;;;;;;;;;4989414;28;20085;-65
2023/02/14 00:45:41;;;;;;;27.33;11.18;;;;;;;;;;4993160;28;20018;-65
2023/02/14 00:48:06;;;;;;;24.93;11.53;;;;;;;;;;4991291;28;20062;-65
2023/02/14 00:50:31;;;;;;;24.42;11.40;;;;;;;;;;4991263;28;20063;-67
2023/02/14 00:55:32;;;;;;;28.30;11.68;;;;;;;;;;5538560;22;20057;-66
2023/02/14 00:57:57;;;;;;;27.63;12.32;;;;;;;;;;5024770;28;20053;-65
2023/02/14 01:00:22;;;;;;;25.17;11.60;;;;;;;;;;5031601;28;20037;-65
2023/02/14 01:02:47;;;;;;;26.93;12.17;;;;;;;;;;5031712;28;20064;-66
2023/02/14 01:05:12;;;;;;;29.63;12.23;;;;;;;;;;5030306;28;20021;-66
2023/02/14 01:07:37;;;;;;;26.13;11.57;;;;;;;;;;5029917;28;20025;-66
2023/02/14 01:10:03;;;;;;;25.20;11.33;;;;;;;;;;5031819;28;20131;-65
2023/02/14 01:12:28;;;;;;;27.08;13.18;;;;;;;;;;5031291;28;20392;-66
2023/02/14 01:14:54;;;;;;;28.77;12.93;;;;;;;;;;5028849;28;20104;-66
2023/02/14 01:17:19;;;;;;;26.25;11.75;;;;;;;;;;5031371;28;20036;-66
2023/02/14 01:19:44;;;;;;;24.67;11.15;;;;;;;;;;5030118;28;20026;-66
2023/02/14 01:22:09;;;;;;;25.50;12.00;;;;;;;;;;5030453;28;20472;-66
2023/02/14 01:24:35;;;;;;;25.45;11.38;;;;;;;;;;5030401;28;20029;-66
2023/02/14 01:27:00;;;;;;;27.67;12.50;;;;;;;;;;5025330;28;20029;-65
2023/02/14 01:29:25;;;;;;;29.02;12.20;;;;;;;;;;5030236;28;20130;-65
2023/02/14 01:31:50;;;;;;;27.50;12.50;;;;;;;;;;5029920;28;20041;-65
2023/02/14 01:34:15;;;;;;;26.02;12.52;;;;;;;;;;5029749;28;20163;-65
2023/02/14 01:36:40;;;;;;;28.50;12.67;;;;;;;;;;5029478;28;20034;-65
2023/02/14 01:39:07;;;;;;;26.60;11.70;;;;;;;;;;5029880;28;20406;-66
2023/02/14 01:41:34;;;;;;;25.08;11.35;;;;;;;;;;5030267;28;20021;-64
2023/02/14 01:44:00;;;;;;;28.00;12.55;;;;;;;;;;5029148;28;20064;-65
2023/02/14 01:46:30;;;;;;;29.63;12.43;;;;;;;;;;5029210;28;20052;-65
2023/02/14 01:49:08;;;;;;;27.77;13.00;;;;;;;;;;5028696;28;20147;-66
2023/02/14 01:51:35;;;;;;;24.85;11.30;;;;;;;;;;5030094;28;20526;-65
2023/02/14 01:54:00;;;;;;;26.02;11.88;;;;;;;;;;5027620;28;20028;-65
2023/02/14 01:56:29;;;;;;;25.40;11.55;;;;;;;;;;5030380;28;20029;-67
2023/02/14 01:58:57;;;;;;;27.60;11.88;;;;;;;;;;5026280;28;20056;-65
2023/02/14 02:01:22;;;;;;;25.77;11.95;;;;;;;;;;5029722;28;20396;-65
2023/02/14 02:03:53;;;;;;;30.30;13.65;;;;;;;;;;5030559;28;20021;-66
2023/02/14 02:06:21;;;;;;;26.25;12.10;;;;;;;;;;5029847;28;20033;-66
2023/02/14 02:08:51;;;;;;;26.45;11.65;;;;;;;;;;5029883;28;20439;-67
2023/02/14 02:11:16;;;;;;;25.92;11.77;;;;;;;;;;5031675;28;20068;-67
2023/02/14 02:13:41;;;;;;;26.17;11.80;;;;;;;;;;5033094;28;20385;-68
2023/02/14 02:16:06;;;;;;;28.08;12.48;;;;;;;;;;5031620;28;20461;-66
2023/02/14 02:18:44;;;;;;;27.40;12.10;;;;;;;;;;5032713;28;20469;-68
2023/02/14 02:21:18;;;;;;;29.05;12.32;;;;;;;;;;5031156;28;20021;-65
2023/02/14 02:23:54;;;;;;;30.35;13.15;;;;;;;;;;5031785;28;20033;-67
2023/02/14 02:26:47;;;;;;;29.23;12.65;;;;;;;;;;5030287;28;20053;-67
2023/02/14 02:29:24;;;;;;;29.63;13.00;;;;;;;;;;5030776;28;20045;-67
2023/02/14 02:32:08;;;;;;;30.17;13.02;;;;;;;;;;5029561;28;20457;-66
2023/02/14 02:34:52;;;;;;;26.52;11.63;;;;;;;;;;5029903;28;20660;-66
2023/02/14 02:37:34;;;;;;;26.00;10.95;;;;;;;;;;5029711;28;20014;-66
2023/02/14 02:39:59;;;;;;;24.95;11.52;;;;;;;;;;5030648;28;20388;-66
2023/02/14 02:42:41;;;;;;;25.48;11.43;;;;;;;;;;5033565;28;20409;-66
2023/02/14 02:45:17;;;;;;;25.73;11.50;;;;;;;;;;5031895;28;20447;-66
2023/02/14 02:48:02;;;;;;;24.27;11.25;;;;;;;;;;5030137;28;20025;-66
2023/02/14 02:53:41;;;;;;;26.85;12.05;;;;;;;;;;5029039;28;20396;-66
2023/02/14 02:59:19;;;;;;;26.25;11.65;;;;;;;;;;5026335;28;20399;-66
2023/02/14 03:01:56;;;;;;;27.52;12.32;;;;;;;;;;5030328;28;20472;-66
2023/02/14 03:07:33;;;;;;;26.10;10.93;;;;;;;;;;5028840;28;20089;-66
2023/02/14 03:09:51;;;;;;;29.05;11.98;;;;;;;;;;5034105;28;20060;-67
2023/02/14 03:12:23;;;;;;;30.25;11.82;;;;;;;;;;5039549;28;20018;-66
2023/02/14 03:14:48;;;;;;;29.17;11.85;;;;;;;;;;5030204;28;20112;-67
2023/02/14 03:17:23;;;;;;;28.63;12.45;;;;;;;;;;5030323;28;20109;-67
2023/02/14 03:20:12;;;;;;;27.50;12.45;;;;;;;;;;5030253;28;20026;-66
2023/02/14 03:22:45;;;;;;;25.05;10.90;;;;;;;;;;5030762;28;20021;-67
2023/02/14 03:25:25;;;;;;;29.35;12.70;;;;;;;;;;5029176;28;20014;-67
2023/02/14 03:28:08;;;;;;;27.90;12.10;;;;;;;;;;5030156;28;20020;-67
2023/02/14 03:30:40;;;;;;;31.45;13.25;;;;;;;;;;5030385;28;20022;-65
2023/02/14 03:33:26;;;;;;;28.67;13.23;;;;;;;;;;5029316;28;20129;-65
2023/02/14 03:35:55;;;;;;;30.60;12.88;;;;;;;;;;5025874;28;20038;-65
2023/02/14 03:38:24;;;;;;;26.58;11.73;;;;;;;;;;5029795;28;20029;-67
2023/02/14 03:40:53;;;;;;;27.45;11.93;;;;;;;;;;5030145;28;20540;-67
2023/02/14 03:43:22;;;;;;;28.67;11.70;;;;;;;;;;5029914;28;20571;-67
2023/02/14 03:45:50;;;;;;;29.83;12.98;;;;;;;;;;5032163;28;20029;-67
2023/02/14 03:48:18;;;;;;;27.70;11.88;;;;;;;;;;5032997;28;20025;-66
2023/02/14 03:50:45;;;;;;;26.90;11.90;;;;;;;;;;5033114;28;20535;-66
2023/02/14 03:53:11;;;;;;;29.42;13.02;;;;;;;;;;5032309;28;20049;-65
2023/02/14 03:55:40;;;;;;;26.58;11.80;;;;;;;;;;5032334;28;20029;-65
2023/02/14 03:58:15;;;;;;;26.45;12.25;;;;;;;;;;5033009;28;20026;-66
2023/02/14 04:00:41;;;;;;;28.02;12.50;;;;;;;;;;5032881;28;20389;-66
2023/02/14 04:03:10;;;;;;;29.33;12.02;;;;;;;;;;5032581;28;20028;-67
2023/02/14 04:05:37;;;;;;;26.88;12.23;;;;;;;;;;5031524;28;20075;-66
2023/02/14 04:08:02;;;;;;;26.83;12.77;;;;;;;;;;5031834;28;20017;-66
2023/02/14 04:10:27;;;;;;;30.52;12.40;;;;;;;;;;5023322;28;20170;-67
2023/02/14 04:12:52;;;;;;;30.00;13.13;;;;;;;;;;5029562;28;20036;-67
2023/02/14 04:15:18;;;;;;;29.40;12.43;;;;;;;;;;5030546;28;20028;-66
2023/02/14 04:20:27;;;;;;;29.30;12.07;;;;;;;;;;5027073;28;20392;-67
2023/02/14 04:22:52;;;;;;;28.77;12.03;;;;;;;;;;5032521;28;20017;-66
2023/02/14 04:25:17;;;;;;;29.00;12.73;;;;;;;;;;5031211;28;20033;-66
2023/02/14 04:27:43;;;;;;;27.77;11.85;;;;;;;;;;5033900;28;20104;-67
2023/02/14 04:30:08;;;;;;;22.97;10.93;;;;;;;;;;5039759;28;20021;-67
2023/02/14 04:32:34;;;;;;;28.45;12.20;;;;;;;;;;5042671;28;20101;-66
2023/02/14 04:34:59;;;;;;;27.52;11.77;;;;;;;;;;5039681;28;20029;-66
2023/02/14 04:37:24;;;;;;;26.88;11.57;;;;;;;;;;5051426;28;20457;-67
2023/02/14 04:39:49;;;;;;;28.30;11.57;;;;;;;;;;5043188;28;20032;-67
2023/02/14 04:42:14;;;;;;;32.17;13.63;;;;;;;;;;5032547;28;20025;-67
2023/02/14 04:44:39;;;;;;;27.23;12.27;;;;;;;;;;5031088;28;20404;-67
2023/02/14 04:47:05;;;;;;;32.07;13.70;;;;;;;;;;5032122;28;20077;-67
2023/02/14 04:49:31;;;;;;;29.38;12.85;;;;;;;;;;5032090;28;20368;-67
2023/02/14 04:51:56;;;;;;;26.57;11.80;;;;;;;;;;5031971;28;20041;-67
2023/02/14 04:54:21;;;;;;;27.30;12.23;;;;;;;;;;5029340;28;20029;-67
2023/02/14 04:56:46;;;;;;;26.50;11.57;;;;;;;;;;5031671;28;20040;-67
2023/02/14 04:59:11;;;;;;;28.90;11.87;;;;;;;;;;5029381;28;20017;-66
2023/02/14 05:01:36;;;;;;;25.27;11.63;;;;;;;;;;5031897;28;20025;-67
2023/02/14 05:04:02;;;;;;;27.17;10.97;;;;;;;;;;5030076;28;20037;-67
2023/02/14 05:06:27;;;;;;;28.90;11.57;;;;;;;;;;5032075;28;20021;-67
2023/02/14 05:08:53;;;;;;;25.42;11.07;;;;;;;;;;5031630;28;20709;-67
2023/02/14 05:11:18;;;;;;;22.13;10.00;;;;;;;;;;5031514;28;20021;-66
2023/02/14 05:13:43;;;;;;;21.95;9.90;;;;;;;;;;5030220;28;20496;-66
2023/02/14 05:16:08;;;;;;;20.02;9.82;;;;;;;;;;5022691;28;20061;-66
2023/02/14 05:18:33;;;;;;;18.38;8.98;;;;;;;;;;5030514;28;20036;-67
2023/02/14 05:20:58;;;;;;;17.40;8.27;;;;;;;;;;5030489;28;20055;-67
2023/02/14 05:23:23;;;;;;;15.07;7.93;;;;;;;;;;5027622;28;20068;-67
2023/02/14 05:25:49;;;;;;;15.60;8.32;;;;;;;;;;5030257;28;20033;-67
2023/02/14 05:28:14;;;;;;;17.08;8.80;;;;;;;;;;5033745;28;20523;-67
2023/02/14 05:30:40;;;;;;;20.07;9.53;;;;;;;;;;5033866;28;20405;-67
2023/02/14 05:33:05;;;;;;;21.57;10.33;;;;;;;;;;5034846;28;20029;-66
2023/02/14 05:35:30;;;;;;;21.20;9.93;;;;;;;;;;5034280;28;20056;-67
2023/02/14 05:37:55;;;;;;;24.20;10.70;;;;;;;;;;5036178;28;20791;-66
2023/02/14 05:40:21;;;;;;;20.60;10.53;;;;;;;;;;5034444;28;20014;-67
2023/02/14 05:42:46;;;;;;;22.48;10.40;;;;;;;;;;5032470;28;20092;-67
2023/02/14 05:45:11;;;;;;;22.42;10.90;;;;;;;;;;5029282;28;20087;-67
2023/02/14 05:47:37;;;;;;;23.92;11.00;;;;;;;;;;5030671;28;20013;-67
2023/02/14 05:50:02;;;;;;;24.17;11.75;;;;;;;;;;5030707;28;20037;-67
2023/02/14 05:52:27;;;;;;;27.27;11.63;;;;;;;;;;5031537;28;20013;-67
2023/02/14 05:54:52;;;;;;;24.33;11.70;;;;;;;;;;5030264;28;20504;-67
2023/02/14 05:57:18;;;;;;;31.27;12.15;;;;;;;;;;5042816;28;20532;-66
2023/02/14 05:59:43;;;;;;;25.77;11.60;;;;;;;;;;5040508;28;20100;-67
2023/02/14 06:02:08;;;;;;;22.77;11.38;;;;;;;;;;5030587;28;20100;-67
2023/02/14 06:04:33;;;;;;;23.97;11.07;;;;;;;;;;5026042;28;20033;-67
2023/02/14 06:06:58;;;;;;;23.60;11.20;;;;;;;;;;5027630;28;20556;-66
2023/02/14 06:09:23;;;;;;;23.48;10.98;;;;;;;;;;5020583;28;20037;-66
2023/02/14 06:11:49;;;;;;;21.43;9.63;;;;;;;;;;5026710;28;20025;-67
2023/02/14 06:14:14;;;;;;;18.53;9.33;;;;;;;;;;5027781;28;20025;-67
2023/02/14 06:16:39;;;;;;;20.52;10.07;;;;;;;;;;5026715;28;20570;-67
2023/02/14 06:19:04;;;;;;;19.77;8.88;;;;;;;;;;5018238;28;20028;-66
2023/02/14 06:21:29;;;;;;;20.42;9.05;;;;;;;;;;5018541;28;20033;-66
2023/02/14 06:23:54;;;;;;;19.63;9.82;;;;;;;;;;5028312;28;20433;-68
2023/02/14 06:26:20;;;;;;;19.77;9.80;;;;;;;;;;5029262;28;20029;-68
2023/02/14 06:28:45;;;;;;;20.95;9.95;;;;;;;;;;5027824;28;20018;-69
2023/02/14 06:31:16;;;;;;;22.75;9.50;;;;;;;;;;5028207;28;20017;-68
2023/02/14 06:33:41;;;;;;;22.33;10.00;;;;;;;;;;5026279;28;20117;-68
2023/02/14 06:36:06;;;;;;;20.27;9.57;;;;;;;;;;5023024;28;20163;-68
2023/02/14 06:38:32;;;;;;;20.23;9.43;;;;;;;;;;5023488;28;20696;-68
2023/02/14 06:41:01;;;;;;;20.45;9.90;;;;;;;;;;5019936;28;20030;-69
2023/02/14 06:43:26;;;;;;;22.90;10.65;;;;;;;;;;5022142;28;20421;-68
2023/02/14 06:45:52;;;;;;;22.60;10.18;;;;;;;;;;5023143;28;20021;-68
2023/02/14 06:48:17;;;;;;;24.35;11.23;;;;;;;;;;5029121;28;20111;-68
2023/02/14 06:50:42;;;;;;;21.33;10.18;;;;;;;;;;5031508;28;20040;-68
2023/02/14 06:53:07;;;;;;;22.73;10.83;;;;;;;;;;5029222;28;20519;-68
2023/02/14 06:55:32;;;;;;;21.70;9.73;;;;;;;;;;5028606;28;20026;-68
2023/02/14 06:57:57;;;;;;;22.55;10.60;;;;;;;;;;5021326;28;20404;-68
2023/02/14 07:00:22;;;;;;;20.13;10.10;;;;;;;;;;5023411;28;20032;-68
2023/02/14 07:02:48;;;;;;;22.30;9.40;;;;;;;;;;5020203;28;20473;-68
2023/02/14 07:05:15;;;;;;;20.33;9.73;;;;;;;;;;5026135;28;20060;-66
2023/02/14 07:07:40;;;;;;;19.23;9.93;;;;;;;;;;5024533;28;20109;-67
2023/02/14 07:10:05;;;;;;;22.30;10.10;;;;;;;;;;5023363;28;20105;-67
2023/02/14 07:12:32;;;;;;;22.63;10.80;;;;;;;;;;5023945;28;20083;-67
2023/02/14 07:14:57;;;;;;;20.05;10.25;;;;;;;;;;5023441;28;20084;-66
2023/02/14 07:17:22;;;;;;;24.38;10.48;;;;;;;;;;5013519;28;20058;-67
2023/02/14 07:19:47;;;;;;;21.45;10.07;;;;;;;;;;5018967;28;20040;-67
2023/02/14 07:22:12;;;;;;;20.80;10.25;;;;;;;;;;5032979;28;20052;-67
2023/02/14 07:24:38;;;;;;;23.40;10.35;;;;;;;;;;5030511;28;20052;-66
2023/02/14 07:27:03;;;;;;;23.40;10.30;;;;;;;;;;5021042;28;20137;-67
2023/02/14 07:29:28;;;;;;;22.23;10.13;;;;;;;;;;5020320;28;20033;-66
2023/02/14 07:31:53;;;;;;;22.50;10.33;;;;;;;;;;5029189;28;20056;-67
2023/02/14 07:34:18;;;;;;;22.33;10.55;;;;;;;;;;5029297;28;20083;-67
2023/02/14 07:36:43;;;;;;;23.53;10.53;;;;;;;;;;5039541;28;20034;-67
2023/02/14 07:39:08;;;;;;;21.88;10.63;;;;;;;;;;5031723;28;20605;-67
2023/02/14 07:41:34;;;;;;;21.60;10.07;;;;;;;;;;5032663;28;20021;-67
2023/02/14 07:43:59;;;;;;;21.23;10.07;;;;;;;;;;5032683;28;20029;-66
2023/02/14 07:46:24;;;;;;;22.17;10.55;;;;;;;;;;5027906;28;20056;-67
2023/02/14 07:48:50;;;;;;;27.77;10.70;;;;;;;;;;5041316;28;20380;-67
2023/02/14 07:51:15;;;;;;;22.40;10.60;;;;;;;;;;5032261;28;20014;-67
2023/02/14 07:53:41;;;;;;;22.38;10.60;;;;;;;;;;5036340;28;20020;-67
2023/02/14 07:56:06;;;;;;;20.88;9.93;;;;;;;;;;5033561;28;20087;-67
2023/02/14 07:58:31;;;;;;;21.47;9.73;;;;;;;;;;5040570;28;20277;-67
2023/02/14 08:00:56;;;;;;;19.40;9.50;;;;;;;;;;5039396;28;20017;-67
2023/02/14 08:03:21;;;;;;;21.77;10.40;;;;;;;;;;5031033;28;20125;-67
2023/02/14 08:05:55;;;;;;;19.48;9.32;;;;;;;;;;5047742;28;20025;-67
2023/02/14 08:08:21;;;;;;;20.33;10.00;;;;;;;;;;5033268;28;20032;-67
2023/02/14 08:10:46;;;;;;;18.97;9.03;;;;;;;;;;5032942;28;20021;-67
2023/02/14 08:13:11;;;;;;;19.23;9.07;;;;;;;;;;5031975;28;20049;-67
2023/02/14 08:18:21;;;;;;;19.25;8.60;;;;;;;;;;5033074;28;20028;-66
2023/02/14 08:20:48;;;;;;;15.15;6.78;;;;;;;;;;5032921;28;20021;-66
2023/02/14 08:23:14;;;;;;;17.20;7.70;;;;;;;;;;5030984;28;20026;-67
2023/02/14 08:25:39;;;;;;;14.82;7.35;;;;;;;;;;5032635;28;20021;-66
2023/02/14 08:28:04;;;;;;;15.17;6.80;;;;;;;;;;5033549;28;20018;-66
2023/02/14 08:30:30;;;;;;;14.55;7.07;;;;;;;;;;5029191;28;20626;-68
2023/02/14 08:32:55;;;;;;;18.00;7.22;;;;;;;;;;5029456;28;20021;-67
2023/02/14 08:35:20;;;;;;;15.37;7.00;;;;;;;;;;5037230;28;20029;-67
2023/02/14 08:37:45;;;;;;;16.80;8.32;;;;;;;;;;5038672;28;20033;-67
2023/02/14 08:40:10;;;;;;;15.68;7.25;;;;;;;;;;5038525;28;20028;-67
2023/02/14 08:42:36;;;;;;;15.60;7.83;;;;;;;;;;5035856;28;20037;-66
2023/02/14 08:45:01;;;;;;;16.07;7.77;;;;;;;;;;5039251;28;20452;-66
2023/02/14 08:47:26;;;;;;;16.23;8.02;;;;;;;;;;5039008;28;20044;-67
2023/02/14 08:49:51;;;;;;;14.80;7.95;;;;;;;;;;5033554;28;20026;-65
2023/02/14 08:52:16;;;;;;;17.33;8.03;;;;;;;;;;5031553;28;20152;-67
2023/02/14 08:54:41;;;;;;;17.08;8.23;;;;;;;;;;5031462;28;20030;-66
2023/02/14 08:57:07;;;;;;;18.45;7.18;;;;;;;;;;5031657;28;20124;-66
2023/02/14 08:59:32;;;;;;;17.50;8.60;;;;;;;;;;5032071;28;20079;-65
2023/02/14 09:01:57;;;;;;;17.35;8.90;;;;;;;;;;5030885;28;20024;-67
2023/02/14 09:04:22;;;;;;;16.93;8.37;;;;;;;;;;5027589;28;20029;-66
2023/02/14 09:06:47;;;;;;;18.75;9.30;;;;;;;;;;5032812;28;20064;-66
2023/02/14 09:09:13;;;;;;;18.98;9.25;;;;;;;;;;5032552;28;20034;-66
2023/02/14 09:11:38;;;;;;;18.70;9.68;;;;;;;;;;5031793;28;20472;-67
2023/02/14 09:14:03;;;;;;;16.47;8.50;;;;;;;;;;5028954;28;20029;-66
2023/02/14 09:16:28;;;;;;;16.42;8.63;;;;;;;;;;5031942;28;20453;-66
2023/02/14 09:18:53;;;;;;;16.13;8.80;;;;;;;;;;5031602;28;20025;-67
2023/02/14 09:21:22;;;;;;;16.50;8.10;;;;;;;;;;5031402;28;20101;-67
2023/02/14 09:23:47;;;;;;;16.15;7.90;;;;;;;;;;5029885;28;20029;-67
2023/02/14 09:26:13;;;;;;;16.00;7.93;;;;;;;;;;5031478;28;20025;-65
2023/02/14 09:28:38;;;;;;;15.98;7.40;;;;;;;;;;5031528;28;20022;-66
2023/02/14 09:31:12;;;;;;;17.83;7.47;;;;;;;;;;5015575;28;20049;-68
2023/02/14 09:33:38;;;;;;;14.23;7.82;;;;;;;;;;5026272;28;20033;-66
2023/02/14 09:36:12;;;;;;;14.87;7.23;;;;;;;;;;5027252;28;20033;-67
2023/02/14 09:38:37;;;;;;;12.57;7.18;;;;;;;;;;5024747;28;20068;-65
2023/02/14 09:41:07;;;;;;;14.47;7.10;;;;;;;;;;5027303;28;20068;-67
2023/02/14 09:43:36;;;;;;;13.32;6.38;;;;;;;;;;5028648;28;20565;-65
2023/02/14 09:46:02;;;;;;;12.98;6.95;;;;;;;;;;5030714;28;20014;-66
2023/02/14 09:48:32;;;;;;;13.23;7.40;;;;;;;;;;5031101;28;20036;-66
2023/02/14 09:51:10;;;;;;;12.38;6.78;;;;;;;;;;5031012;28;20427;-66
2023/02/14 09:53:39;;;;;;;16.50;7.50;;;;;;;;;;5029899;28;20028;-66
2023/02/14 09:56:10;;;;;;;15.20;7.22;;;;;;;;;;5029901;28;20056;-66
2023/02/14 09:58:42;;;;;;;14.63;8.18;;;;;;;;;;5031079;28;20095;-66
2023/02/14 10:01:17;;;;;;;18.95;8.40;;;;;;;;;;5030652;28;20096;-66
2023/02/14 10:04:01;;;;;;;16.95;8.55;;;;;;;;;;5029664;28;20535;-66
2023/02/14 10:06:26;;;;;;;15.07;7.25;;;;;;;;;;5024959;28;20118;-66
2023/02/14 10:09:05;;;;;;;17.80;8.98;;;;;;;;;;5031178;28;20076;-65
2023/02/14 10:11:30;;;;;;;;;;;;;;;;;;5031196;28;20025;-68
2023/02/14 10:13:58;;;;;;;15.77;8.35;;;;;;;;;;5028943;28;19924;-67
2023/02/14 10:16:29;;;;;;;18.35;8.88;;;;;;;;;;5030402;28;20041;-65
2023/02/14 10:18:58;;;;;;;17.27;8.27;;;;;;;;;;5031182;28;20025;-66
2023/02/14 10:21:32;;;;;;;16.33;8.07;;;;;;;;;;5030917;28;20021;-67
2023/02/14 10:24:04;;;;;;;16.75;8.48;;;;;;;;;;5029487;28;20116;-67
2023/02/14 10:26:35;;;;;;;16.02;8.02;;;;;;;;;;5030711;28;20029;-67
2023/02/14 10:29:02;;;;;;;14.88;7.40;;;;;;;;;;5030660;28;20027;-67
2023/02/14 10:31:30;;;;;;;15.27;7.68;;;;;;;;;;5030338;28;20380;-66
2023/02/14 10:33:58;;;;;;;13.57;7.38;;;;;;;;;;5028668;28;20396;-66
2023/02/14 10:36:40;;;;;;;15.90;7.72;;;;;;;;;;5030191;28;20447;-68
2023/02/14 10:39:22;;;;;;;18.23;8.23;;;;;;;;;;5030532;28;20090;-68
2023/02/14 10:41:53;;;;;;;15.00;7.75;;;;;;;;;;5025337;28;20064;-67
2023/02/14 10:44:37;;;;;;;16.88;8.00;;;;;;;;;;5022896;28;20036;-66
2023/02/14 10:47:02;;;;;;;14.73;7.78;;;;;;;;;;5030255;28;20132;-67
2023/02/14 10:49:48;;;;;;;14.65;8.30;;;;;;;;;;5030406;28;20375;-66
2023/02/14 10:52:31;;;;;;;18.50;8.68;;;;;;;;;;5029283;28;20511;-66
2023/02/14 10:55:04;;;;;;;15.10;7.88;;;;;;;;;;5033914;28;20044;-65
2023/02/14 10:57:37;;;;;;;15.35;7.53;;;;;;;;;;5034056;28;20025;-66
2023/02/14 11:00:22;;;;;;;19.17;8.55;;;;;;;;;;5032755;28;20018;-67
2023/02/14 11:02:50;;;;;;;20.05;8.68;;;;;;;;;;5031334;28;20566;-67
2023/02/14 11:05:23;;;;;;;15.90;8.25;;;;;;;;;;5032184;28;20111;-67
2023/02/14 11:07:48;;;;;;;;;;;;;;;;;;5033398;28;20112;-67
2023/02/14 11:10:13;;;;;;;13.13;6.97;;;;;;;;;;5032843;28;19991;-67
2023/02/14 11:12:39;;;;;;;15.57;7.47;;;;;;;;;;5031434;28;21234;-66
2023/02/14 11:15:14;;;;;;;16.15;7.95;;;;;;;;;;5031987;28;20472;-67
2023/02/14 11:17:39;;;;;;;14.52;7.47;;;;;;;;;;5032889;28;20021;-67
2023/02/14 11:20:25;;;;;;;17.75;8.27;;;;;;;;;;5032889;28;20026;-67
2023/02/14 11:22:50;;;;;;;15.23;8.10;;;;;;;;;;5031345;28;20033;-67
2023/02/14 11:25:22;;;;;;;15.20;7.70;;;;;;;;;;5031874;28;20385;-66
2023/02/14 11:27:51;;;;;;;18.40;7.82;;;;;;;;;;5033097;28;20029;-67
2023/02/14 11:30:27;;;;;;;16.60;8.82;;;;;;;;;;5025418;28;20065;-66
2023/02/14 11:32:54;;;;;;;20.20;8.02;;;;;;;;;;5016413;28;20025;-66
2023/02/14 11:35:23;;;;;;;16.70;8.02;;;;;;;;;;5032150;28;20025;-67
2023/02/14 11:37:49;;;;;;;15.30;7.53;;;;;;;;;;5032143;28;20029;-67
2023/02/14 11:40:34;;;;;;;13.48;6.95;;;;;;;;;;5032541;28;20017;-67
2023/02/14 11:43:01;;;;;;;16.27;7.68;;;;;;;;;;5030752;28;20126;-65
2023/02/14 11:45:26;;;;;;;13.43;7.45;;;;;;;;;;5029185;28;20386;-66
2023/02/14 11:48:05;;;;;;;15.00;7.63;;;;;;;;;;5028194;28;20186;-66
2023/02/14 11:50:30;;;;;;;15.82;7.53;;;;;;;;;;5028197;28;20017;-66
2023/02/14 11:52:56;;;;;;;16.77;7.70;;;;;;;;;;5027577;28;20029;-67
2023/02/14 11:55:28;;;;;;;14.30;7.70;;;;;;;;;;5031288;28;20087;-67
2023/02/14 11:57:54;;;;;;;16.23;7.60;;;;;;;;;;4997098;28;1052737;-67
2023/02/14 12:00:20;;;;;;;18.45;7.97;;;;;;;;;;5033125;28;20014;-67
2023/02/14 12:02:47;;;;;;;15.27;7.75;;;;;;;;;;5030449;28;20025;-67
2023/02/14 12:05:17;;;;;;;16.95;7.82;;;;;;;;;;5022985;28;20029;-67
2023/02/14 12:07:43;;;;;;;18.25;7.28;;;;;;;;;;5033368;28;20094;-66
2023/02/14 12:10:08;;;;;;;14.25;6.72;;;;;;;;;;5033326;28;20028;-67
2023/02/14 12:12:34;;;;;;;18.33;8.20;;;;;;;;;;5033113;28;20021;-67
2023/02/14 12:15:33;;;;;;;17.30;7.75;;;;;;;;;;5031296;28;20029;-66
2023/02/14 12:18:16;;;;;;;15.00;7.35;;;;;;;;;;5021128;28;20100;-66
2023/02/14 12:20:51;;;;;;;13.68;6.82;;;;;;;;;;5033133;28;20428;-67
2023/02/14 12:23:33;;;;;;;14.55;7.03;;;;;;;;;;5030508;28;20013;-66
2023/02/14 12:26:05;;;;;;;13.90;7.07;;;;;;;;;;5031871;28;20053;-66
2023/02/14 12:28:37;;;;;;;13.32;6.25;;;;;;;;;;5032896;28;20057;-66
2023/02/14 12:31:02;;;;;;;14.13;6.40;;;;;;;;;;5032926;28;20017;-66
2023/02/14 12:33:27;;;;;;;13.20;6.73;;;;;;;;;;5030413;28;20075;-66
2023/02/14 12:36:02;;;;;;;13.48;7.35;;;;;;;;;;5031248;28;20489;-67
2023/02/14 12:38:40;;;;;;;13.38;6.40;;;;;;;;;;5032576;28;20037;-67
2023/02/14 12:41:11;;;;;;;13.00;6.53;;;;;;;;;;5032556;28;20084;-66
2023/02/14 12:43:49;;;;;;;16.30;7.38;;;;;;;;;;5031925;28;20448;-66
2023/02/14 12:46:14;;;;;;;;;;;;;;;;;;5025290;28;20446;-66
2023/02/14 12:48:58;;;;;;;18.00;7.07;;;;;;;;;;5032392;28;19936;-66
2023/02/14 12:51:39;;;;;;;12.07;6.30;;;;;;;;;;5032357;28;20025;-67
2023/02/14 12:54:15;;;;;;;13.85;6.93;;;;;;;;;;5022678;28;20034;-67
2023/02/14 12:56:59;;;;;;;17.10;7.50;;;;;;;;;;5029546;28;20025;-67
2023/02/14 12:59:41;;;;;;;14.00;7.45;;;;;;;;;;5032249;28;20453;-67
2023/02/14 13:02:19;;;;;;;15.27;7.40;;;;;;;;;;5031821;28;20477;-66
2023/02/14 13:04:52;;;;;;;17.92;8.20;;;;;;;;;;5030246;28;20503;-67
2023/02/14 13:07:36;;;;;;;15.18;7.05;;;;;;;;;;5013903;28;20496;-67
2023/02/14 13:10:20;;;;;;;14.55;7.25;;;;;;;;;;5012276;28;20650;-66
2023/02/14 13:12:45;;;;;;;14.52;7.00;;;;;;;;;;5014356;28;20026;-67
2023/02/14 13:15:24;;;;;;;15.05;7.07;;;;;;;;;;5030300;28;20021;-67
2023/02/14 13:17:52;;;;;;;13.75;7.65;;;;;;;;;;5031951;28;20029;-66
2023/02/14 13:20:24;;;;;;;13.05;6.82;;;;;;;;;;5031910;28;20723;-66
2023/02/14 13:22:50;;;;;;;14.68;6.97;;;;;;;;;;5030390;28;20025;-66
2023/02/14 13:25:30;;;;;;;13.05;7.13;;;;;;;;;;5031126;28;20397;-67
2023/02/14 13:27:56;;;;;;;13.52;7.05;;;;;;;;;;5031626;28;20044;-66
2023/02/14 13:30:27;;;;;;;11.98;6.30;;;;;;;;;;5031629;28;20014;-66
2023/02/14 13:32:53;;;;;;;13.05;6.18;;;;;;;;;;5030407;28;20096;-66
2023/02/14 13:35:20;;;;;;;13.48;7.10;;;;;;;;;;5031002;28;20120;-66
2023/02/14 13:37:48;;;;;;;10.45;5.25;;;;;;;;;;5031771;28;20472;-66
2023/02/14 13:40:21;;;;;;;13.32;6.18;;;;;;;;;;5030630;28;20021;-66
2023/02/14 13:42:46;;;;;;;12.00;5.53;;;;;;;;;;5030945;28;20022;-66
2023/02/14 13:45:39;;;;;;;10.20;5.07;;;;;;;;;;5030802;28;20044;-67
2023/02/14 13:48:05;;;;;;;11.93;5.25;;;;;;;;;;5023232;28;20026;-66
2023/02/14 13:50:32;;;;;;;12.18;5.60;;;;;;;;;;5025394;28;20051;-65
2023/02/14 13:52:57;;;;;;;12.45;5.00;;;;;;;;;;5027809;28;20029;-66
2023/02/14 13:55:24;;;;;;;12.10;5.97;;;;;;;;;;5018614;28;20388;-67
2023/02/14 13:58:04;;;;;;;14.00;7.25;;;;;;;;;;5024413;28;20037;-67
2023/02/14 14:00:55;;;;;;;13.75;7.28;;;;;;;;;;5021989;28;20160;-67
2023/02/14 14:03:27;;;;;;;12.90;7.10;;;;;;;;;;5014062;28;20036;-65
2023/02/14 14:05:58;;;;;;;14.45;7.30;;;;;;;;;;5021950;28;20025;-68
2023/02/14 14:08:25;;;;;;;16.40;7.30;;;;;;;;;;5025589;28;20021;-66
2023/02/14 14:10:55;;;;;;;17.45;9.13;;;;;;;;;;5023248;28;20038;-65
2023/02/14 14:13:49;;;;;;;15.45;8.00;;;;;;;;;;5024410;28;20029;-65
2023/02/14 14:16:17;;;;;;;16.38;8.90;;;;;;;;;;5010962;28;20474;-65
2023/02/14 14:18:43;;;;;;;17.33;9.10;;;;;;;;;;5024974;28;20034;-66
2023/02/14 14:21:21;;;;;;;18.92;8.73;;;;;;;;;;5037395;28;20128;-66
2023/02/14 14:24:01;;;;;;;18.40;9.32;;;;;;;;;;5029748;28;20043;-66
2023/02/14 14:26:28;;;;;;;19.10;10.43;;;;;;;;;;5029585;28;20014;-65
2023/02/14 14:28:54;;;;;;;20.85;10.50;;;;;;;;;;5028824;28;20021;-65
2023/02/14 14:31:19;;;;;;;22.80;11.20;;;;;;;;;;5025839;28;20051;-65
2023/02/14 14:33:44;;;;;;;20.43;10.90;;;;;;;;;;5025413;28;20035;-65
2023/02/14 14:36:20;;;;;;;21.88;11.00;;;;;;;;;;5026498;28;20607;-65
2023/02/14 14:38:46;;;;;;;19.65;10.63;;;;;;;;;;5025932;28;20116;-65
2023/02/14 14:41:11;;;;;;;20.65;10.40;;;;;;;;;;5018706;28;20384;-66
2023/02/14 14:43:38;;;;;;;22.67;11.35;;;;;;;;;;5026494;28;20025;-65
2023/02/14 14:46:06;;;;;;;21.25;9.90;;;;;;;;;;5024847;28;20424;-66
2023/02/14 14:48:34;;;;;;;21.88;10.30;;;;;;;;;;5024242;28;20684;-66
2023/02/14 14:51:00;;;;;;;19.70;10.10;;;;;;;;;;5026537;28;20053;-66
2023/02/14 14:53:27;;;;;;;22.70;10.68;;;;;;;;;;5025593;28;20103;-67